sensor_id;sensor_type;location;lat;lon;timestamp;pressure;altitude;pressure_sealevel;temperature;humidity
21960;BME280;11144;43.030;25.108;2022-07-21T00:00:14;99273.13;;;18.83;100.00
21960;BME280;11144;43.030;25.108;2022-07-21T00:01:49;99259.84;;;18.81;100.00
21960;BME280;11144;43.030;25.108;2022-07-21T00:03:23;99269.38;;;18.85;100.00
21960;BME280;11144;43.030;25.108;2022-07-21T00:04:56;99265.50;;;18.89;100.00
21960;BME280;11144;43.030;25.108;2022-07-21T00:06:30;99265.72;;;18.86;100.00
21960;BME280;11144;43.030;25.108;2022-07-21T00:08:04;99273.03;;;18.84;100.00
21960;BME280;11144;43.030;25.108;2022-07-21T00:09:37;99258.97;;;18.81;100.00
21960;BME280;11144;43.030;25.108;2022-07-21T00:11:11;99270.66;;;18.80;100.00
21960;BME280;11144;43.030;25.108;2022-07-21T00:12:44;99269.78;;;18.79;100.00
21960;BME280;11144;43.030;25.108;2022-07-21T00:14:18;99259.06;;;18.79;100.00
21960;BME280;11144;43.030;25.108;2022-07-21T00:15:52;99267.25;;;18.78;100.00
21960;BME280;11144;43.030;25.108;2022-07-21T00:17:26;99267.13;;;18.79;100.00
21960;BME280;11144;43.030;25.108;2022-07-21T00:18:59;99265.63;;;18.75;100.00
21960;BME280;11144;43.030;25.108;2022-07-21T00:20:33;99266.59;;;18.74;100.00
21960;BME280;11144;43.030;25.108;2022-07-21T00:22:06;99270.25;;;18.73;100.00
21960;BME280;11144;43.030;25.108;2022-07-21T00:23:40;99263.19;;;18.72;100.00
21960;BME280;11144;43.030;25.108;2022-07-21T00:25:14;99263.19;;;18.72;100.00
21960;BME280;11144;43.030;25.108;2022-07-21T00:26:47;99271.41;;;18.69;100.00
21960;BME280;11144;43.030;25.108;2022-07-21T00:28:21;99271.22;;;18.72;100.00
21960;BME280;11144;43.030;25.108;2022-07-21T00:29:55;99269.59;;;18.70;100.00
21960;BME280;11144;43.030;25.108;2022-07-21T00:31:29;99270.44;;;18.70;100.00
21960;BME280;11144;43.030;25.108;2022-07-21T00:33:03;99267.97;;;18.67;100.00
21960;BME280;11144;43.030;25.108;2022-07-21T00:34:37;99269.16;;;18.63;100.00
21960;BME280;11144;43.030;25.108;2022-07-21T00:36:10;99265.59;;;18.63;100.00
21960;BME280;11144;43.030;25.108;2022-07-21T00:37:43;99272.81;;;18.62;100.00
21960;BME280;11144;43.030;25.108;2022-07-21T00:39:17;99271.09;;;18.61;100.00
21960;BME280;11144;43.030;25.108;2022-07-21T00:40:50;99268.63;;;18.58;100.00
21960;BME280;11144;43.030;25.108;2022-07-21T00:42:26;99271.72;;;18.52;100.00
21960;BME280;11144;43.030;25.108;2022-07-21T00:44:00;99267.44;;;18.50;100.00
21960;BME280;11144;43.030;25.108;2022-07-21T00:45:33;99258.88;;;18.45;100.00
21960;BME280;11144;43.030;25.108;2022-07-21T00:47:10;99251.34;;;18.37;100.00
21960;BME280;11144;43.030;25.108;2022-07-21T00:48:42;99270.41;;;18.45;100.00
21960;BME280;11144;43.030;25.108;2022-07-21T00:50:18;99267.00;;;18.43;100.00
21960;BME280;11144;43.030;25.108;2022-07-21T00:51:51;99259.91;;;18.42;100.00
21960;BME280;11144;43.030;25.108;2022-07-21T00:53:25;99244.66;;;18.30;100.00
21960;BME280;11144;43.030;25.108;2022-07-21T00:54:59;99267.31;;;18.39;100.00
21960;BME280;11144;43.030;25.108;2022-07-21T00:56:33;99262.06;;;18.37;100.00
21960;BME280;11144;43.030;25.108;2022-07-21T00:58:07;99256.03;;;18.34;100.00
21960;BME280;11144;43.030;25.108;2022-07-21T00:59:41;99257.72;;;18.22;100.00
21960;BME280;11144;43.030;25.108;2022-07-21T01:01:15;99253.94;;;18.12;100.00
21960;BME280;11144;43.030;25.108;2022-07-21T01:02:50;99248.44;;;18.01;100.00
21960;BME280;11144;43.030;25.108;2022-07-21T01:04:23;99261.69;;;17.90;100.00
21960;BME280;11144;43.030;25.108;2022-07-21T01:05:57;99256.34;;;17.90;100.00
21960;BME280;11144;43.030;25.108;2022-07-21T01:07:31;99260.38;;;17.83;100.00
21960;BME280;11144;43.030;25.108;2022-07-21T01:09:05;99258.28;;;17.88;100.00
21960;BME280;11144;43.030;25.108;2022-07-21T01:10:42;99261.88;;;17.75;100.00
21960;BME280;11144;43.030;25.108;2022-07-21T01:12:16;99262.69;;;17.75;100.00
21960;BME280;11144;43.030;25.108;2022-07-21T01:13:50;99263.13;;;17.69;100.00
21960;BME280;11144;43.030;25.108;2022-07-21T01:15:24;99268.06;;;17.75;100.00
21960;BME280;11144;43.030;25.108;2022-07-21T01:16:58;99259.06;;;17.76;100.00
21960;BME280;11144;43.030;25.108;2022-07-21T01:18:33;99251.91;;;17.77;100.00
21960;BME280;11144;43.030;25.108;2022-07-21T01:20:09;99264.00;;;17.82;100.00
21960;BME280;11144;43.030;25.108;2022-07-21T01:21:46;99256.97;;;17.81;100.00
21960;BME280;11144;43.030;25.108;2022-07-21T01:23:20;99267.66;;;17.81;100.00
21960;BME280;11144;43.030;25.108;2022-07-21T01:24:54;99254.56;;;17.77;100.00
21960;BME280;11144;43.030;25.108;2022-07-21T01:26:27;99260.03;;;17.75;100.00
21960;BME280;11144;43.030;25.108;2022-07-21T01:28:00;99250.09;;;17.77;100.00
21960;BME280;11144;43.030;25.108;2022-07-21T01:29:34;99252.00;;;17.75;100.00
21960;BME280;11144;43.030;25.108;2022-07-21T01:31:07;99255.66;;;17.74;100.00
21960;BME280;11144;43.030;25.108;2022-07-21T01:32:41;99261.19;;;17.71;100.00
21960;BME280;11144;43.030;25.108;2022-07-21T01:34:15;99248.78;;;17.70;100.00
21960;BME280;11144;43.030;25.108;2022-07-21T01:35:49;99261.00;;;17.74;100.00
21960;BME280;11144;43.030;25.108;2022-07-21T01:37:28;99253.94;;;17.73;100.00
21960;BME280;11144;43.030;25.108;2022-07-21T01:39:01;99257.78;;;17.69;100.00
21960;BME280;11144;43.030;25.108;2022-07-21T01:40:57;99258.25;;;17.62;100.00
21960;BME280;11144;43.030;25.108;2022-07-21T01:42:48;99253.44;;;17.54;100.00
21960;BME280;11144;43.030;25.108;2022-07-21T01:44:22;99261.75;;;17.50;100.00
21960;BME280;11144;43.030;25.108;2022-07-21T01:45:56;99257.75;;;17.43;100.00
21960;BME280;11144;43.030;25.108;2022-07-21T01:47:29;99261.44;;;17.40;100.00
21960;BME280;11144;43.030;25.108;2022-07-21T01:49:03;99260.78;;;17.37;100.00
21960;BME280;11144;43.030;25.108;2022-07-21T01:50:37;99250.94;;;17.37;100.00
21960;BME280;11144;43.030;25.108;2022-07-21T01:52:11;99256.09;;;17.40;100.00
21960;BME280;11144;43.030;25.108;2022-07-21T01:53:45;99261.44;;;17.40;100.00
21960;BME280;11144;43.030;25.108;2022-07-21T01:55:19;99255.94;;;17.43;100.00
21960;BME280;11144;43.030;25.108;2022-07-21T01:56:52;99254.34;;;17.39;100.00
21960;BME280;11144;43.030;25.108;2022-07-21T01:58:25;99251.13;;;17.34;100.00
21960;BME280;11144;43.030;25.108;2022-07-21T01:59:58;99249.44;;;17.33;100.00
21960;BME280;11144;43.030;25.108;2022-07-21T02:01:37;99259.75;;;17.25;100.00
21960;BME280;11144;43.030;25.108;2022-07-21T02:03:11;99248.66;;;17.17;100.00
21960;BME280;11144;43.030;25.108;2022-07-21T02:04:44;99251.66;;;17.13;100.00
21960;BME280;11144;43.030;25.108;2022-07-21T02:06:18;99247.56;;;17.07;100.00
21960;BME280;11144;43.030;25.108;2022-07-21T02:07:51;99243.06;;;17.08;100.00
21960;BME280;11144;43.030;25.108;2022-07-21T02:09:26;99252.91;;;17.07;100.00
21960;BME280;11144;43.030;25.108;2022-07-21T02:10:59;99250.41;;;17.04;100.00
21960;BME280;11144;43.030;25.108;2022-07-21T02:12:32;99244.88;;;16.93;100.00
21960;BME280;11144;43.030;25.108;2022-07-21T02:14:06;99254.06;;;16.89;100.00
21960;BME280;11144;43.030;25.108;2022-07-21T02:15:39;99257.47;;;16.91;100.00
21960;BME280;11144;43.030;25.108;2022-07-21T02:17:13;99251.28;;;16.91;100.00
21960;BME280;11144;43.030;25.108;2022-07-21T02:18:45;99253.28;;;16.87;100.00
21960;BME280;11144;43.030;25.108;2022-07-21T02:20:19;99256.34;;;16.81;100.00
21960;BME280;11144;43.030;25.108;2022-07-21T02:21:52;99244.50;;;16.71;100.00
21960;BME280;11144;43.030;25.108;2022-07-21T02:23:26;99259.19;;;16.64;100.00
21960;BME280;11144;43.030;25.108;2022-07-21T02:24:59;99253.19;;;16.60;100.00
21960;BME280;11144;43.030;25.108;2022-07-21T02:26:33;99248.88;;;16.58;100.00
21960;BME280;11144;43.030;25.108;2022-07-21T02:28:07;99242.41;;;16.48;100.00
21960;BME280;11144;43.030;25.108;2022-07-21T02:29:39;99244.56;;;16.41;100.00
21960;BME280;11144;43.030;25.108;2022-07-21T02:31:12;99254.22;;;16.44;100.00
21960;BME280;11144;43.030;25.108;2022-07-21T02:32:45;99245.16;;;16.46;100.00
21960;BME280;11144;43.030;25.108;2022-07-21T02:34:19;99252.03;;;16.50;100.00
21960;BME280;11144;43.030;25.108;2022-07-21T02:35:53;99253.38;;;16.57;100.00
21960;BME280;11144;43.030;25.108;2022-07-21T02:37:27;99246.97;;;16.60;100.00
21960;BME280;11144;43.030;25.108;2022-07-21T02:39:00;99254.03;;;16.61;100.00
21960;BME280;11144;43.030;25.108;2022-07-21T02:40:35;99247.63;;;16.63;100.00
21960;BME280;11144;43.030;25.108;2022-07-21T02:42:08;99249.47;;;16.63;100.00
21960;BME280;11144;43.030;25.108;2022-07-21T02:43:42;99249.19;;;16.53;100.00
21960;BME280;11144;43.030;25.108;2022-07-21T02:45:15;99247.91;;;16.45;100.00
21960;BME280;11144;43.030;25.108;2022-07-21T02:46:51;99245.50;;;16.40;100.00
21960;BME280;11144;43.030;25.108;2022-07-21T02:48:24;99238.72;;;16.35;100.00
21960;BME280;11144;43.030;25.108;2022-07-21T02:49:58;99244.06;;;16.35;100.00
21960;BME280;11144;43.030;25.108;2022-07-21T02:51:31;99246.72;;;16.35;100.00
21960;BME280;11144;43.030;25.108;2022-07-21T02:53:06;99249.13;;;16.39;100.00
21960;BME280;11144;43.030;25.108;2022-07-21T02:54:39;99244.47;;;16.43;100.00
21960;BME280;11144;43.030;25.108;2022-07-21T02:56:15;99244.66;;;16.40;100.00
21960;BME280;11144;43.030;25.108;2022-07-21T02:57:48;99246.34;;;16.41;100.00
21960;BME280;11144;43.030;25.108;2022-07-21T02:59:21;99248.09;;;16.42;100.00
21960;BME280;11144;43.030;25.108;2022-07-21T03:00:57;99241.88;;;16.41;100.00
21960;BME280;11144;43.030;25.108;2022-07-21T03:02:32;99247.31;;;16.40;100.00
21960;BME280;11144;43.030;25.108;2022-07-21T03:04:05;99241.19;;;16.38;100.00
21960;BME280;11144;43.030;25.108;2022-07-21T03:05:39;99246.34;;;16.41;100.00
21960;BME280;11144;43.030;25.108;2022-07-21T03:07:13;99246.34;;;16.41;100.00
21960;BME280;11144;43.030;25.108;2022-07-21T03:08:46;99246.34;;;16.41;100.00
21960;BME280;11144;43.030;25.108;2022-07-21T03:10:20;99251.88;;;16.38;100.00
21960;BME280;11144;43.030;25.108;2022-07-21T03:11:55;99246.34;;;16.41;100.00
21960;BME280;11144;43.030;25.108;2022-07-21T03:13:29;99248.59;;;16.48;100.00
21960;BME280;11144;43.030;25.108;2022-07-21T03:15:02;99252.69;;;16.54;100.00
21960;BME280;11144;43.030;25.108;2022-07-21T03:16:35;99258.97;;;16.53;100.00
21960;BME280;11144;43.030;25.108;2022-07-21T03:18:08;99253.16;;;16.46;100.00
21960;BME280;11144;43.030;25.108;2022-07-21T03:19:42;99253.56;;;16.54;100.00
21960;BME280;11144;43.030;25.108;2022-07-21T03:21:14;99253.81;;;16.50;100.00
21960;BME280;11144;43.030;25.108;2022-07-21T03:22:47;99259.25;;;16.48;100.00
21960;BME280;11144;43.030;25.108;2022-07-21T03:24:21;99260.69;;;16.54;100.00
21960;BME280;11144;43.030;25.108;2022-07-21T03:25:54;99258.03;;;16.54;100.00
21960;BME280;11144;43.030;25.108;2022-07-21T03:27:29;99255.44;;;16.52;100.00
21960;BME280;11144;43.030;25.108;2022-07-21T03:29:02;99259.94;;;16.52;100.00
21960;BME280;11144;43.030;25.108;2022-07-21T03:30:36;99252.56;;;16.41;100.00
21960;BME280;11144;43.030;25.108;2022-07-21T03:32:09;99259.06;;;16.51;100.00
21960;BME280;11144;43.030;25.108;2022-07-21T03:33:42;99259.78;;;16.55;100.00
21960;BME280;11144;43.030;25.108;2022-07-21T03:35:15;99271.97;;;16.59;100.00
21960;BME280;11144;43.030;25.108;2022-07-21T03:36:48;99268.16;;;16.63;100.00
21960;BME280;11144;43.030;25.108;2022-07-21T03:38:22;99269.00;;;16.63;100.00
21960;BME280;11144;43.030;25.108;2022-07-21T03:39:55;99269.69;;;16.67;100.00
21960;BME280;11144;43.030;25.108;2022-07-21T03:41:29;99275.50;;;16.73;100.00
21960;BME280;11144;43.030;25.108;2022-07-21T03:43:05;99270.44;;;16.69;100.00
21960;BME280;11144;43.030;25.108;2022-07-21T03:44:39;99273.09;;;16.69;100.00
21960;BME280;11144;43.030;25.108;2022-07-21T03:46:13;99277.22;;;16.74;100.00
21960;BME280;11144;43.030;25.108;2022-07-21T03:47:46;99274.44;;;16.76;100.00
21960;BME280;11144;43.030;25.108;2022-07-21T03:49:20;99278.09;;;16.75;100.00
21960;BME280;11144;43.030;25.108;2022-07-21T03:50:54;99283.44;;;16.75;100.00
21960;BME280;11144;43.030;25.108;2022-07-21T03:52:28;99277.72;;;16.81;100.00
21960;BME280;11144;43.030;25.108;2022-07-21T03:54:01;99285.13;;;16.76;100.00
21960;BME280;11144;43.030;25.108;2022-07-21T03:55:35;99277.44;;;16.71;100.00
21960;BME280;11144;43.030;25.108;2022-07-21T03:57:08;99284.75;;;16.68;100.00
21960;BME280;11144;43.030;25.108;2022-07-21T03:58:42;99284.66;;;16.69;100.00
21960;BME280;11144;43.030;25.108;2022-07-21T04:00:17;99281.53;;;16.77;100.00
21960;BME280;11144;43.030;25.108;2022-07-21T04:01:51;99283.59;;;16.72;100.00
21960;BME280;11144;43.030;25.108;2022-07-21T04:03:24;99285.03;;;16.77;100.00
21960;BME280;11144;43.030;25.108;2022-07-21T04:04:58;99291.63;;;16.86;100.00
21960;BME280;11144;43.030;25.108;2022-07-21T04:06:31;99291.47;;;16.89;100.00
21960;BME280;11144;43.030;25.108;2022-07-21T04:08:05;99289.34;;;16.94;100.00
21960;BME280;11144;43.030;25.108;2022-07-21T04:09:39;99294.31;;;17.00;100.00
21960;BME280;11144;43.030;25.108;2022-07-21T04:11:12;99295.66;;;17.07;100.00
21960;BME280;11144;43.030;25.108;2022-07-21T04:12:45;99294.09;;;17.17;100.00
21960;BME280;11144;43.030;25.108;2022-07-21T04:14:20;99290.88;;;17.26;100.00
21960;BME280;11144;43.030;25.108;2022-07-21T04:15:54;99287.81;;;17.32;100.00
21960;BME280;11144;43.030;25.108;2022-07-21T04:17:27;99291.78;;;17.39;100.00
21960;BME280;11144;43.030;25.108;2022-07-21T04:19:01;99294.66;;;17.50;100.00
21960;BME280;11144;43.030;25.108;2022-07-21T04:20:34;99296.66;;;17.61;100.00
21960;BME280;11144;43.030;25.108;2022-07-21T04:22:08;99291.59;;;17.70;100.00
21960;BME280;11144;43.030;25.108;2022-07-21T04:23:40;99290.31;;;17.76;100.00
21960;BME280;11144;43.030;25.108;2022-07-21T04:25:15;99289.06;;;17.81;100.00
21960;BME280;11144;43.030;25.108;2022-07-21T04:26:49;99288.25;;;17.93;100.00
21960;BME280;11144;43.030;25.108;2022-07-21T04:28:21;99285.63;;;18.06;100.00
21960;BME280;11144;43.030;25.108;2022-07-21T04:29:56;99284.06;;;18.16;100.00
21960;BME280;11144;43.030;25.108;2022-07-21T04:31:28;99276.78;;;18.30;100.00
21960;BME280;11144;43.030;25.108;2022-07-21T04:33:01;99284.78;;;18.44;100.00
21960;BME280;11144;43.030;25.108;2022-07-21T04:34:35;99277.97;;;18.65;100.00
21960;BME280;11144;43.030;25.108;2022-07-21T04:36:08;99290.19;;;18.94;100.00
21960;BME280;11144;43.030;25.108;2022-07-21T04:37:41;99290.78;;;19.23;100.00
21960;BME280;11144;43.030;25.108;2022-07-21T04:39:15;99291.91;;;19.56;100.00
21960;BME280;11144;43.030;25.108;2022-07-21T04:40:47;99290.44;;;19.88;100.00
21960;BME280;11144;43.030;25.108;2022-07-21T04:42:20;99284.28;;;20.23;100.00
21960;BME280;11144;43.030;25.108;2022-07-21T04:43:55;99282.72;;;20.66;100.00
21960;BME280;11144;43.030;25.108;2022-07-21T04:45:32;99282.56;;;21.02;100.00
21960;BME280;11144;43.030;25.108;2022-07-21T04:47:05;99283.41;;;21.35;100.00
21960;BME280;11144;43.030;25.108;2022-07-21T04:48:39;99277.41;;;21.76;100.00
21960;BME280;11144;43.030;25.108;2022-07-21T04:50:12;99272.13;;;22.17;100.00
21960;BME280;11144;43.030;25.108;2022-07-21T04:51:46;99270.50;;;22.57;100.00
21960;BME280;11144;43.030;25.108;2022-07-21T04:53:20;99269.75;;;22.96;100.00
21960;BME280;11144;43.030;25.108;2022-07-21T04:54:53;99269.72;;;23.17;100.00
21960;BME280;11144;43.030;25.108;2022-07-21T04:56:26;99273.28;;;23.47;100.00
21960;BME280;11144;43.030;25.108;2022-07-21T04:57:59;99267.69;;;23.88;100.00
21960;BME280;11144;43.030;25.108;2022-07-21T04:59:33;99268.63;;;24.17;100.00
21960;BME280;11144;43.030;25.108;2022-07-21T05:01:08;99269.22;;;24.30;100.00
21960;BME280;11144;43.030;25.108;2022-07-21T05:02:41;99265.94;;;24.55;100.00
21960;BME280;11144;43.030;25.108;2022-07-21T05:04:15;99277.03;;;24.81;100.00
21960;BME280;11144;43.030;25.108;2022-07-21T05:05:49;99263.41;;;25.09;100.00
21960;BME280;11144;43.030;25.108;2022-07-21T05:07:22;99261.78;;;25.35;100.00
21960;BME280;11144;43.030;25.108;2022-07-21T05:08:55;99270.09;;;25.61;100.00
21960;BME280;11144;43.030;25.108;2022-07-21T05:10:29;99272.78;;;25.88;100.00
21960;BME280;11144;43.030;25.108;2022-07-21T05:12:02;99258.66;;;26.12;100.00
21960;BME280;11144;43.030;25.108;2022-07-21T05:13:36;99259.75;;;26.19;100.00
21960;BME280;11144;43.030;25.108;2022-07-21T05:15:10;99259.28;;;26.41;100.00
21960;BME280;11144;43.030;25.108;2022-07-21T05:16:45;99248.03;;;26.53;100.00
21960;BME280;11144;43.030;25.108;2022-07-21T05:18:18;99253.41;;;26.63;100.00
21960;BME280;11144;43.030;25.108;2022-07-21T05:19:52;99248.03;;;26.71;100.00
21960;BME280;11144;43.030;25.108;2022-07-21T05:21:30;99251.56;;;26.89;100.00
21960;BME280;11144;43.030;25.108;2022-07-21T05:23:04;99247.88;;;26.98;100.00
21960;BME280;11144;43.030;25.108;2022-07-21T05:24:37;99245.63;;;27.19;100.00
21960;BME280;11144;43.030;25.108;2022-07-21T05:26:10;99238.75;;;27.24;100.00
21960;BME280;11144;43.030;25.108;2022-07-21T05:27:45;99242.69;;;27.30;100.00
21960;BME280;11144;43.030;25.108;2022-07-21T05:29:18;99244.13;;;27.50;100.00
21960;BME280;11144;43.030;25.108;2022-07-21T05:30:52;99243.97;;;27.59;100.00
21960;BME280;11144;43.030;25.108;2022-07-21T05:32:26;99242.84;;;27.62;100.00
21960;BME280;11144;43.030;25.108;2022-07-21T05:34:00;99242.56;;;27.81;100.00
21960;BME280;11144;43.030;25.108;2022-07-21T05:35:33;99243.66;;;27.96;100.00
21960;BME280;11144;43.030;25.108;2022-07-21T05:37:07;99237.19;;;27.97;100.00
21960;BME280;11144;43.030;25.108;2022-07-21T05:38:40;99231.91;;;28.03;100.00
21960;BME280;11144;43.030;25.108;2022-07-21T05:40:14;99233.16;;;28.17;100.00
21960;BME280;11144;43.030;25.108;2022-07-21T05:41:48;99234.72;;;28.43;100.00
21960;BME280;11144;43.030;25.108;2022-07-21T05:43:21;99235.91;;;28.73;100.00
21960;BME280;11144;43.030;25.108;2022-07-21T05:44:54;99237.44;;;29.08;100.00
21960;BME280;11144;43.030;25.108;2022-07-21T05:46:28;99245.00;;;29.36;100.00
21960;BME280;11144;43.030;25.108;2022-07-21T05:48:03;99246.63;;;29.53;100.00
21960;BME280;11144;43.030;25.108;2022-07-21T05:49:36;99242.25;;;29.44;100.00
21960;BME280;11144;43.030;25.108;2022-07-21T05:51:10;99226.38;;;29.09;100.00
21960;BME280;11144;43.030;25.108;2022-07-21T05:52:49;99244.69;;;29.23;100.00
21960;BME280;11144;43.030;25.108;2022-07-21T05:54:23;99246.38;;;29.32;100.00
21960;BME280;11144;43.030;25.108;2022-07-21T05:55:56;99243.16;;;29.75;100.00
21960;BME280;11144;43.030;25.108;2022-07-21T05:57:30;99243.69;;;30.09;100.00
21960;BME280;11144;43.030;25.108;2022-07-21T05:59:03;99237.78;;;30.28;100.00
21960;BME280;11144;43.030;25.108;2022-07-21T06:00:37;99235.75;;;30.22;100.00
21960;BME280;11144;43.030;25.108;2022-07-21T06:02:10;99243.00;;;30.07;100.00
21960;BME280;11144;43.030;25.108;2022-07-21T06:03:48;99244.94;;;30.29;100.00
21960;BME280;11144;43.030;25.108;2022-07-21T06:05:22;99233.75;;;30.61;100.00
21960;BME280;11144;43.030;25.108;2022-07-21T06:06:55;99243.72;;;30.54;100.00
21960;BME280;11144;43.030;25.108;2022-07-21T06:08:28;99235.56;;;30.24;100.00
21960;BME280;11144;43.030;25.108;2022-07-21T06:10:02;99231.81;;;30.47;100.00
21960;BME280;11144;43.030;25.108;2022-07-21T06:11:36;99235.56;;;30.91;100.00
21960;BME280;11144;43.030;25.108;2022-07-21T06:13:10;99237.09;;;31.08;100.00
21960;BME280;11144;43.030;25.108;2022-07-21T06:14:43;99237.47;;;31.20;100.00
21960;BME280;11144;43.030;25.108;2022-07-21T06:16:16;99225.44;;;31.43;100.00
21960;BME280;11144;43.030;25.108;2022-07-21T06:17:50;99231.38;;;31.61;100.00
21960;BME280;11144;43.030;25.108;2022-07-21T06:19:25;99231.34;;;31.76;100.00
21960;BME280;11144;43.030;25.108;2022-07-21T06:21:03;99224.59;;;32.08;100.00
21960;BME280;11144;43.030;25.108;2022-07-21T06:22:37;99227.03;;;32.17;100.00
21960;BME280;11144;43.030;25.108;2022-07-21T06:24:10;99221.28;;;32.12;100.00
21960;BME280;11144;43.030;25.108;2022-07-21T06:25:44;99222.94;;;32.28;100.00
21960;BME280;11144;43.030;25.108;2022-07-21T06:27:17;99231.16;;;32.28;100.00
21960;BME280;11144;43.030;25.108;2022-07-21T06:28:51;99222.56;;;32.52;100.00
21960;BME280;11144;43.030;25.108;2022-07-21T06:30:24;99218.66;;;32.40;100.00
21960;BME280;11144;43.030;25.108;2022-07-21T06:31:58;99223.22;;;32.33;100.00
21960;BME280;11144;43.030;25.108;2022-07-21T06:33:31;99217.84;;;32.67;100.00
21960;BME280;11144;43.030;25.108;2022-07-21T06:35:07;99225.75;;;32.76;100.00
21960;BME280;11144;43.030;25.108;2022-07-21T06:36:41;99226.19;;;32.80;100.00
21960;BME280;11144;43.030;25.108;2022-07-21T06:38:14;99218.63;;;32.82;100.00
21960;BME280;11144;43.030;25.108;2022-07-21T06:39:47;99215.25;;;32.59;100.00
21960;BME280;11144;43.030;25.108;2022-07-21T06:41:20;99206.91;;;32.46;100.00
21960;BME280;11144;43.030;25.108;2022-07-21T06:42:54;99219.44;;;32.55;100.00
21960;BME280;11144;43.030;25.108;2022-07-21T06:44:47;99221.63;;;32.66;100.00
21960;BME280;11144;43.030;25.108;2022-07-21T06:46:24;99218.63;;;32.82;100.00
21960;BME280;11144;43.030;25.108;2022-07-21T06:48:03;99212.53;;;33.07;100.00
21960;BME280;11144;43.030;25.108;2022-07-21T06:49:37;99218.53;;;33.24;100.00
21960;BME280;11144;43.030;25.108;2022-07-21T06:51:11;99218.59;;;33.03;100.00
21960;BME280;11144;43.030;25.108;2022-07-21T06:52:45;99221.38;;;32.82;100.00
21960;BME280;11144;43.030;25.108;2022-07-21T06:54:18;99216.91;;;33.02;100.00
21960;BME280;11144;43.030;25.108;2022-07-21T06:55:52;99217.81;;;33.36;100.00
21960;BME280;11144;43.030;25.108;2022-07-21T06:57:34;99216.97;;;33.42;100.00
21960;BME280;11144;43.030;25.108;2022-07-21T06:59:07;99223.72;;;33.40;100.00
21960;BME280;11144;43.030;25.108;2022-07-21T07:00:41;99208.63;;;33.57;100.00
21960;BME280;11144;43.030;25.108;2022-07-21T07:02:15;99213.31;;;33.63;100.00
21960;BME280;11144;43.030;25.108;2022-07-21T07:03:48;99206.06;;;33.49;100.00
21960;BME280;11144;43.030;25.108;2022-07-21T07:05:22;99206.00;;;33.15;100.00
21960;BME280;11144;43.030;25.108;2022-07-21T07:06:56;99212.38;;;33.49;100.00
21960;BME280;11144;43.030;25.108;2022-07-21T07:08:30;99200.13;;;33.86;100.00
21960;BME280;11144;43.030;25.108;2022-07-21T07:10:04;99204.63;;;34.13;100.00
21960;BME280;11144;43.030;25.108;2022-07-21T07:11:38;99206.41;;;34.40;100.00
21960;BME280;11144;43.030;25.108;2022-07-21T07:13:12;99201.78;;;34.67;100.00
21960;BME280;11144;43.030;25.108;2022-07-21T07:15:08;99196.88;;;35.27;100.00
21960;BME280;11144;43.030;25.108;2022-07-21T07:16:41;99201.34;;;35.41;100.00
21960;BME280;11144;43.030;25.108;2022-07-21T07:18:15;99199.00;;;35.38;100.00
21960;BME280;11144;43.030;25.108;2022-07-21T07:19:49;99202.16;;;35.42;100.00
21960;BME280;11144;43.030;25.108;2022-07-21T07:21:22;99194.19;;;35.01;100.00
21960;BME280;11144;43.030;25.108;2022-07-21T07:22:57;99192.88;;;35.10;100.00
21960;BME280;11144;43.030;25.108;2022-07-21T07:24:30;99186.06;;;35.45;100.00
21960;BME280;11144;43.030;25.108;2022-07-21T07:26:04;99192.81;;;35.62;100.00
21960;BME280;11144;43.030;25.108;2022-07-21T07:27:37;99194.41;;;35.89;100.00
21960;BME280;11144;43.030;25.108;2022-07-21T07:29:10;99193.88;;;36.05;100.00
21960;BME280;11144;43.030;25.108;2022-07-21T07:30:44;99188.31;;;36.12;100.00
21960;BME280;11144;43.030;25.108;2022-07-21T07:32:17;99187.94;;;36.08;100.00
21960;BME280;11144;43.030;25.108;2022-07-21T07:33:51;99188.78;;;36.09;100.00
21960;BME280;11144;43.030;25.108;2022-07-21T07:35:25;99180.31;;;36.10;100.00
21960;BME280;11144;43.030;25.108;2022-07-21T07:36:58;99180.38;;;35.97;100.00
21960;BME280;11144;43.030;25.108;2022-07-21T07:38:33;99182.47;;;35.95;100.00
21960;BME280;11144;43.030;25.108;2022-07-21T07:40:09;99176.44;;;35.74;100.00
21960;BME280;11144;43.030;25.108;2022-07-21T07:41:43;99175.25;;;36.01;100.00
21960;BME280;11144;43.030;25.108;2022-07-21T07:43:17;99185.75;;;36.17;100.00
21960;BME280;11144;43.030;25.108;2022-07-21T07:44:50;99182.72;;;36.31;100.00
21960;BME280;11144;43.030;25.108;2022-07-21T07:46:24;99177.94;;;36.51;100.00
21960;BME280;11144;43.030;25.108;2022-07-21T07:47:57;99185.09;;;36.83;100.00
21960;BME280;11144;43.030;25.108;2022-07-21T07:49:31;99185.03;;;37.14;100.00
21960;BME280;11144;43.030;25.108;2022-07-21T07:51:04;99186.34;;;37.48;100.00
21960;BME280;11144;43.030;25.108;2022-07-21T07:52:40;99180.88;;;37.66;100.00
21960;BME280;11144;43.030;25.108;2022-07-21T07:54:15;99182.81;;;37.66;100.00
21960;BME280;11144;43.030;25.108;2022-07-21T07:55:49;99182.31;;;37.69;100.00
21960;BME280;11144;43.030;25.108;2022-07-21T07:57:22;99181.50;;;37.68;100.00
21960;BME280;11144;43.030;25.108;2022-07-21T07:58:55;99171.00;;;37.88;100.00
21960;BME280;11144;43.030;25.108;2022-07-21T08:00:29;99173.44;;;37.96;100.00
21960;BME280;11144;43.030;25.108;2022-07-21T08:02:22;99175.38;;;38.14;100.00
21960;BME280;11144;43.030;25.108;2022-07-21T08:03:56;99166.28;;;38.25;100.00
21960;BME280;11144;43.030;25.108;2022-07-21T08:05:30;99164.22;;;38.20;100.00